sensor_id;sensor_type;location;lat;lon;timestamp;temperature;humidity
1592;DHT22;789;51.612;7.510;2023-03-15T00:01:12;5.70;1.00
1592;DHT22;789;51.612;7.510;2023-03-15T00:03:40;5.60;1.00
1592;DHT22;789;51.612;7.510;2023-03-15T00:06:07;5.50;1.00
1592;DHT22;789;51.612;7.510;2023-03-15T00:08:36;5.30;1.00
1592;DHT22;789;51.612;7.510;2023-03-15T00:11:03;5.10;1.00
1592;DHT22;789;51.612;7.510;2023-03-15T00:13:30;5.00;1.00
1592;DHT22;789;51.612;7.510;2023-03-15T00:15:58;4.90;1.00
1592;DHT22;789;51.612;7.510;2023-03-15T00:18:26;4.80;1.00
1592;DHT22;789;51.612;7.510;2023-03-15T00:20:53;4.80;1.00
1592;DHT22;789;51.612;7.510;2023-03-15T00:23:20;4.70;1.00
1592;DHT22;789;51.612;7.510;2023-03-15T00:25:50;4.70;1.00
1592;DHT22;789;51.612;7.510;2023-03-15T00:28:17;4.70;1.00
1592;DHT22;789;51.612;7.510;2023-03-15T00:30:45;4.50;1.00
1592;DHT22;789;51.612;7.510;2023-03-15T00:33:12;4.40;1.00
1592;DHT22;789;51.612;7.510;2023-03-15T00:35:40;4.40;1.00
1592;DHT22;789;51.612;7.510;2023-03-15T00:38:08;4.40;1.00
1592;DHT22;789;51.612;7.510;2023-03-15T00:40:36;4.50;1.00
1592;DHT22;789;51.612;7.510;2023-03-15T00:43:04;4.50;1.00
1592;DHT22;789;51.612;7.510;2023-03-15T00:45:31;4.60;1.00
1592;DHT22;789;51.612;7.510;2023-03-15T00:47:58;4.60;1.00
1592;DHT22;789;51.612;7.510;2023-03-15T00:50:24;4.60;1.00
1592;DHT22;789;51.612;7.510;2023-03-15T00:52:51;4.60;1.00
1592;DHT22;789;51.612;7.510;2023-03-15T00:55:19;4.60;1.00
1592;DHT22;789;51.612;7.510;2023-03-15T00:57:46;4.60;1.00
1592;DHT22;789;51.612;7.510;2023-03-15T01:00:18;4.70;1.00
1592;DHT22;789;51.612;7.510;2023-03-15T01:02:48;4.60;1.00
1592;DHT22;789;51.612;7.510;2023-03-15T01:05:15;4.60;1.00
1592;DHT22;789;51.612;7.510;2023-03-15T01:07:42;4.60;1.00
1592;DHT22;789;51.612;7.510;2023-03-15T01:10:11;4.60;1.00
1592;DHT22;789;51.612;7.510;2023-03-15T01:12:38;4.50;1.00
1592;DHT22;789;51.612;7.510;2023-03-15T01:15:07;4.50;1.00
1592;DHT22;789;51.612;7.510;2023-03-15T01:17:37;4.50;1.00
1592;DHT22;789;51.612;7.510;2023-03-15T01:20:06;4.50;1.00
1592;DHT22;789;51.612;7.510;2023-03-15T01:22:33;4.50;1.00
1592;DHT22;789;51.612;7.510;2023-03-15T01:25:00;4.50;1.00
1592;DHT22;789;51.612;7.510;2023-03-15T01:27:27;4.50;1.00
1592;DHT22;789;51.612;7.510;2023-03-15T01:29:54;4.50;1.00
1592;DHT22;789;51.612;7.510;2023-03-15T01:32:21;4.50;1.00
1592;DHT22;789;51.612;7.510;2023-03-15T01:34:50;4.50;1.00
1592;DHT22;789;51.612;7.510;2023-03-15T01:37:16;4.50;1.00
1592;DHT22;789;51.612;7.510;2023-03-15T01:39:43;4.60;1.00
1592;DHT22;789;51.612;7.510;2023-03-15T01:42:10;4.60;1.00
1592;DHT22;789;51.612;7.510;2023-03-15T01:44:52;4.70;1.00
1592;DHT22;789;51.612;7.510;2023-03-15T01:47:19;4.60;1.00
1592;DHT22;789;51.612;7.510;2023-03-15T01:49:55;4.50;1.00
1592;DHT22;789;51.612;7.510;2023-03-15T01:52:25;4.50;1.00
1592;DHT22;789;51.612;7.510;2023-03-15T01:54:57;4.50;1.00
1592;DHT22;789;51.612;7.510;2023-03-15T01:57:30;4.50;1.00
1592;DHT22;789;51.612;7.510;2023-03-15T02:00:03;4.50;1.00
1592;DHT22;789;51.612;7.510;2023-03-15T02:02:34;4.60;1.00
1592;DHT22;789;51.612;7.510;2023-03-15T02:05:06;4.60;1.00
1592;DHT22;789;51.612;7.510;2023-03-15T02:07:36;4.60;1.00
1592;DHT22;789;51.612;7.510;2023-03-15T02:10:07;4.50;1.00
1592;DHT22;789;51.612;7.510;2023-03-15T02:12:39;4.50;1.00
1592;DHT22;789;51.612;7.510;2023-03-15T02:15:08;4.60;1.00
1592;DHT22;789;51.612;7.510;2023-03-15T02:17:37;4.70;1.00
1592;DHT22;789;51.612;7.510;2023-03-15T02:20:14;4.70;1.00
1592;DHT22;789;51.612;7.510;2023-03-15T02:22:49;4.80;1.00
1592;DHT22;789;51.612;7.510;2023-03-15T02:25:25;4.90;1.00
1592;DHT22;789;51.612;7.510;2023-03-15T02:28:01;5.00;1.00
1592;DHT22;789;51.612;7.510;2023-03-15T02:30:29;5.00;1.00
1592;DHT22;789;51.612;7.510;2023-03-15T02:32:56;5.00;1.00
1592;DHT22;789;51.612;7.510;2023-03-15T02:35:25;5.00;1.00
1592;DHT22;789;51.612;7.510;2023-03-15T02:37:53;5.10;1.00
1592;DHT22;789;51.612;7.510;2023-03-15T02:40:21;5.10;1.00
1592;DHT22;789;51.612;7.510;2023-03-15T02:42:52;5.10;1.00
1592;DHT22;789;51.612;7.510;2023-03-15T02:45:21;5.10;1.00
1592;DHT22;789;51.612;7.510;2023-03-15T02:47:49;5.10;1.00
1592;DHT22;789;51.612;7.510;2023-03-15T02:50:17;5.20;1.00
1592;DHT22;789;51.612;7.510;2023-03-15T02:52:44;5.10;1.00
1592;DHT22;789;51.612;7.510;2023-03-15T02:55:11;5.20;1.00
1592;DHT22;789;51.612;7.510;2023-03-15T02:57:38;5.20;1.00
1592;DHT22;789;51.612;7.510;2023-03-15T03:00:06;5.10;1.00
1592;DHT22;789;51.612;7.510;2023-03-15T03:02:41;5.10;1.00
1592;DHT22;789;51.612;7.510;2023-03-15T03:05:08;5.10;1.00
1592;DHT22;789;51.612;7.510;2023-03-15T03:07:35;5.20;1.00
1592;DHT22;789;51.612;7.510;2023-03-15T03:10:02;5.20;1.00
1592;DHT22;789;51.612;7.510;2023-03-15T03:12:29;5.20;1.00
1592;DHT22;789;51.612;7.510;2023-03-15T03:14:56;5.20;1.00
1592;DHT22;789;51.612;7.510;2023-03-15T03:17:23;5.20;1.00
1592;DHT22;789;51.612;7.510;2023-03-15T03:19:51;5.20;1.00
1592;DHT22;789;51.612;7.510;2023-03-15T03:22:18;5.20;1.00
1592;DHT22;789;51.612;7.510;2023-03-15T03:24:48;5.20;1.00
1592;DHT22;789;51.612;7.510;2023-03-15T03:27:16;5.20;1.00
1592;DHT22;789;51.612;7.510;2023-03-15T03:29:43;5.20;1.00
1592;DHT22;789;51.612;7.510;2023-03-15T03:32:10;5.20;1.00
1592;DHT22;789;51.612;7.510;2023-03-15T03:34:37;5.20;1.00
1592;DHT22;789;51.612;7.510;2023-03-15T03:37:05;5.30;1.00
1592;DHT22;789;51.612;7.510;2023-03-15T03:39:32;5.30;1.00
1592;DHT22;789;51.612;7.510;2023-03-15T03:41:59;5.20;1.00
1592;DHT22;789;51.612;7.510;2023-03-15T03:44:26;5.20;1.00
1592;DHT22;789;51.612;7.510;2023-03-15T03:46:52;5.20;1.00
1592;DHT22;789;51.612;7.510;2023-03-15T03:49:19;5.30;1.00
1592;DHT22;789;51.612;7.510;2023-03-15T03:51:46;5.30;1.00
1592;DHT22;789;51.612;7.510;2023-03-15T03:54:14;5.30;1.00
1592;DHT22;789;51.612;7.510;2023-03-15T03:56:41;5.40;1.00
1592;DHT22;789;51.612;7.510;2023-03-15T03:59:07;5.40;1.00
1592;DHT22;789;51.612;7.510;2023-03-15T04:01:35;5.40;1.00
1592;DHT22;789;51.612;7.510;2023-03-15T04:04:02;5.40;1.00
1592;DHT22;789;51.612;7.510;2023-03-15T04:06:29;5.40;1.00
1592;DHT22;789;51.612;7.510;2023-03-15T04:08:55;5.40;1.00
1592;DHT22;789;51.612;7.510;2023-03-15T04:11:24;5.30;1.00
1592;DHT22;789;51.612;7.510;2023-03-15T04:13:51;5.30;1.00
1592;DHT22;789;51.612;7.510;2023-03-15T04:16:18;5.30;1.00
1592;DHT22;789;51.612;7.510;2023-03-15T04:18:45;5.30;1.00
1592;DHT22;789;51.612;7.510;2023-03-15T04:21:12;5.30;1.00
1592;DHT22;789;51.612;7.510;2023-03-15T04:23:39;5.30;1.00
1592;DHT22;789;51.612;7.510;2023-03-15T04:26:05;5.30;1.00
1592;DHT22;789;51.612;7.510;2023-03-15T04:28:33;5.40;1.00
1592;DHT22;789;51.612;7.510;2023-03-15T04:31:02;5.30;1.00
1592;DHT22;789;51.612;7.510;2023-03-15T04:33:29;5.30;1.00
1592;DHT22;789;51.612;7.510;2023-03-15T04:35:57;5.30;1.00
1592;DHT22;789;51.612;7.510;2023-03-15T04:38:24;5.20;1.00
1592;DHT22;789;51.612;7.510;2023-03-15T04:40:51;5.10;1.00
1592;DHT22;789;51.612;7.510;2023-03-15T04:43:18;5.00;1.00
1592;DHT22;789;51.612;7.510;2023-03-15T04:45:46;5.00;1.00
1592;DHT22;789;51.612;7.510;2023-03-15T04:48:13;4.90;1.00
1592;DHT22;789;51.612;7.510;2023-03-15T04:50:39;4.90;1.00
1592;DHT22;789;51.612;7.510;2023-03-15T04:53:06;4.90;1.00
1592;DHT22;789;51.612;7.510;2023-03-15T04:55:33;4.90;1.00
1592;DHT22;789;51.612;7.510;2023-03-15T04:58:00;4.90;1.00
1592;DHT22;789;51.612;7.510;2023-03-15T05:00:27;4.90;1.00
1592;DHT22;789;51.612;7.510;2023-03-15T05:02:55;4.90;1.00
1592;DHT22;789;51.612;7.510;2023-03-15T05:05:22;4.90;1.00
1592;DHT22;789;51.612;7.510;2023-03-15T05:07:49;4.90;1.00
1592;DHT22;789;51.612;7.510;2023-03-15T05:10:17;4.90;1.00
1592;DHT22;789;51.612;7.510;2023-03-15T05:12:44;5.00;1.00
1592;DHT22;789;51.612;7.510;2023-03-15T05:15:11;4.90;1.00
1592;DHT22;789;51.612;7.510;2023-03-15T05:17:38;4.90;1.00
1592;DHT22;789;51.612;7.510;2023-03-15T05:20:07;4.90;1.00
1592;DHT22;789;51.612;7.510;2023-03-15T05:22:37;5.00;1.00
1592;DHT22;789;51.612;7.510;2023-03-15T05:25:05;5.00;1.00
1592;DHT22;789;51.612;7.510;2023-03-15T05:27:32;5.00;1.00
1592;DHT22;789;51.612;7.510;2023-03-15T05:29:59;5.00;1.00
1592;DHT22;789;51.612;7.510;2023-03-15T05:32:28;5.00;1.00
1592;DHT22;789;51.612;7.510;2023-03-15T05:34:59;4.90;1.00
1592;DHT22;789;51.612;7.510;2023-03-15T05:37:27;4.90;1.00
1592;DHT22;789;51.612;7.510;2023-03-15T05:39:54;4.90;1.00
1592;DHT22;789;51.612;7.510;2023-03-15T05:42:21;4.90;1.00
1592;DHT22;789;51.612;7.510;2023-03-15T05:44:50;5.00;1.00
1592;DHT22;789;51.612;7.510;2023-03-15T05:47:17;5.00;1.00
1592;DHT22;789;51.612;7.510;2023-03-15T05:49:44;5.00;1.00
1592;DHT22;789;51.612;7.510;2023-03-15T05:52:11;4.90;1.00
1592;DHT22;789;51.612;7.510;2023-03-15T05:54:39;5.00;1.00
1592;DHT22;789;51.612;7.510;2023-03-15T05:57:06;5.00;1.00
1592;DHT22;789;51.612;7.510;2023-03-15T05:59:33;5.00;1.00
1592;DHT22;789;51.612;7.510;2023-03-15T06:02:00;5.00;1.00
1592;DHT22;789;51.612;7.510;2023-03-15T06:04:27;5.00;1.00
1592;DHT22;789;51.612;7.510;2023-03-15T06:06:53;5.10;1.00
1592;DHT22;789;51.612;7.510;2023-03-15T06:09:20;5.20;1.00
1592;DHT22;789;51.612;7.510;2023-03-15T06:11:48;5.20;1.00
1592;DHT22;789;51.612;7.510;2023-03-15T06:14:15;5.10;1.00
1592;DHT22;789;51.612;7.510;2023-03-15T06:16:42;5.10;1.00
1592;DHT22;789;51.612;7.510;2023-03-15T06:19:09;5.10;1.00
1592;DHT22;789;51.612;7.510;2023-03-15T06:21:36;5.10;1.00
1592;DHT22;789;51.612;7.510;2023-03-15T06:24:03;5.10;1.00
1592;DHT22;789;51.612;7.510;2023-03-15T06:26:31;5.10;1.00
1592;DHT22;789;51.612;7.510;2023-03-15T06:29:00;5.10;1.00
1592;DHT22;789;51.612;7.510;2023-03-15T06:31:26;5.10;1.00
1592;DHT22;789;51.612;7.510;2023-03-15T06:33:53;5.20;1.00
1592;DHT22;789;51.612;7.510;2023-03-15T06:36:20;5.20;1.00
1592;DHT22;789;51.612;7.510;2023-03-15T06:38:48;5.30;1.00
1592;DHT22;789;51.612;7.510;2023-03-15T06:41:18;5.40;1.00
1592;DHT22;789;51.612;7.510;2023-03-15T06:43:46;5.40;1.00
1592;DHT22;789;51.612;7.510;2023-03-15T06:46:14;5.40;1.00
1592;DHT22;789;51.612;7.510;2023-03-15T06:48:41;5.40;1.00
1592;DHT22;789;51.612;7.510;2023-03-15T06:51:08;5.40;1.00
1592;DHT22;789;51.612;7.510;2023-03-15T06:53:35;5.50;1.00
1592;DHT22;789;51.612;7.510;2023-03-15T06:56:02;5.50;1.00
1592;DHT22;789;51.612;7.510;2023-03-15T06:58:29;5.50;1.00
1592;DHT22;789;51.612;7.510;2023-03-15T07:00:55;5.40;1.00
1592;DHT22;789;51.612;7.510;2023-03-15T07:03:23;5.60;1.00
1592;DHT22;789;51.612;7.510;2023-03-15T07:05:51;5.70;1.00
1592;DHT22;789;51.612;7.510;2023-03-15T07:08:19;5.90;1.00
1592;DHT22;789;51.612;7.510;2023-03-15T07:10:46;6.20;1.00
1592;DHT22;789;51.612;7.510;2023-03-15T07:13:14;6.40;1.00
1592;DHT22;789;51.612;7.510;2023-03-15T07:15:41;6.70;1.00
1592;DHT22;789;51.612;7.510;2023-03-15T07:18:08;6.90;1.00
1592;DHT22;789;51.612;7.510;2023-03-15T07:20:36;7.10;1.00
1592;DHT22;789;51.612;7.510;2023-03-15T07:23:03;7.70;1.00
1592;DHT22;789;51.612;7.510;2023-03-15T07:25:29;8.50;1.00
1592;DHT22;789;51.612;7.510;2023-03-15T07:27:56;9.60;1.00
1592;DHT22;789;51.612;7.510;2023-03-15T07:30:23;10.60;1.00
1592;DHT22;789;51.612;7.510;2023-03-15T07:32:50;11.50;1.00
1592;DHT22;789;51.612;7.510;2023-03-15T07:35:17;12.30;1.00
1592;DHT22;789;51.612;7.510;2023-03-15T07:37:45;13.30;1.00
1592;DHT22;789;51.612;7.510;2023-03-15T07:40:12;14.10;1.00
1592;DHT22;789;51.612;7.510;2023-03-15T07:42:40;14.60;1.00
1592;DHT22;789;51.612;7.510;2023-03-15T07:45:08;14.70;1.00
1592;DHT22;789;51.612;7.510;2023-03-15T07:47:35;14.50;1.00
1592;DHT22;789;51.612;7.510;2023-03-15T07:50:03;14.90;1.00
1592;DHT22;789;51.612;7.510;2023-03-15T07:52:30;15.10;1.00
1592;DHT22;789;51.612;7.510;2023-03-15T07:54:58;15.50;1.00
1592;DHT22;789;51.612;7.510;2023-03-15T07:57:25;15.80;1.00
1592;DHT22;789;51.612;7.510;2023-03-15T07:59:52;16.00;1.00
1592;DHT22;789;51.612;7.510;2023-03-15T08:02:18;16.50;1.00
1592;DHT22;789;51.612;7.510;2023-03-15T08:04:46;17.10;1.00
1592;DHT22;789;51.612;7.510;2023-03-15T08:07:15;17.80;1.00
1592;DHT22;789;51.612;7.510;2023-03-15T08:09:41;18.30;1.00
1592;DHT22;789;51.612;7.510;2023-03-15T08:12:11;18.80;1.00
1592;DHT22;789;51.612;7.510;2023-03-15T08:14:37;18.80;1.00
1592;DHT22;789;51.612;7.510;2023-03-15T08:17:04;18.80;1.00
1592;DHT22;789;51.612;7.510;2023-03-15T08:19:31;18.80;1.00
1592;DHT22;789;51.612;7.510;2023-03-15T08:21:58;19.00;1.00
1592;DHT22;789;51.612;7.510;2023-03-15T08:24:25;19.60;1.00
1592;DHT22;789;51.612;7.510;2023-03-15T08:26:52;20.00;1.00
1592;DHT22;789;51.612;7.510;2023-03-15T08:29:20;20.10;1.00
1592;DHT22;789;51.612;7.510;2023-03-15T08:31:47;20.30;1.00
1592;DHT22;789;51.612;7.510;2023-03-15T08:34:15;20.40;1.00
1592;DHT22;789;51.612;7.510;2023-03-15T08:36:41;20.30;1.00
1592;DHT22;789;51.612;7.510;2023-03-15T08:39:08;20.40;1.00
1592;DHT22;789;51.612;7.510;2023-03-15T08:41:35;21.00;1.00
1592;DHT22;789;51.612;7.510;2023-03-15T08:44:02;21.10;1.00
1592;DHT22;789;51.612;7.510;2023-03-15T08:46:31;20.90;1.00
1592;DHT22;789;51.612;7.510;2023-03-15T08:48:58;20.00;1.00
1592;DHT22;789;51.612;7.510;2023-03-15T08:51:25;19.20;1.00
1592;DHT22;789;51.612;7.510;2023-03-15T08:53:53;18.30;1.00
1592;DHT22;789;51.612;7.510;2023-03-15T08:56:20;17.40;1.00
1592;DHT22;789;51.612;7.510;2023-03-15T08:58:47;16.40;1.00
1592;DHT22;789;51.612;7.510;2023-03-15T09:01:14;15.40;1.00
1592;DHT22;789;51.612;7.510;2023-03-15T09:03:42;14.60;1.00
1592;DHT22;789;51.612;7.510;2023-03-15T09:06:09;13.90;1.00
1592;DHT22;789;51.612;7.510;2023-03-15T09:08:36;13.50;1.00
1592;DHT22;789;51.612;7.510;2023-03-15T09:11:03;13.60;1.00
1592;DHT22;789;51.612;7.510;2023-03-15T09:13:30;14.60;1.00
1592;DHT22;789;51.612;7.510;2023-03-15T09:15:57;15.90;1.00
1592;DHT22;789;51.612;7.510;2023-03-15T09:18:23;17.60;1.00
1592;DHT22;789;51.612;7.510;2023-03-15T09:20:52;18.70;1.00
1592;DHT22;789;51.612;7.510;2023-03-15T09:23:18;18.80;1.00
1592;DHT22;789;51.612;7.510;2023-03-15T09:25:45;19.00;1.00
1592;DHT22;789;51.612;7.510;2023-03-15T09:28:12;18.90;1.00
1592;DHT22;789;51.612;7.510;2023-03-15T09:30:40;18.40;1.00
1592;DHT22;789;51.612;7.510;2023-03-15T09:33:07;17.60;1.00
1592;DHT22;789;51.612;7.510;2023-03-15T09:35:34;16.60;1.00
1592;DHT22;789;51.612;7.510;2023-03-15T09:38:02;15.70;1.00
1592;DHT22;789;51.612;7.510;2023-03-15T09:40:31;14.80;1.00
1592;DHT22;789;51.612;7.510;2023-03-15T09:43:02;14.10;1.00
1592;DHT22;789;51.612;7.510;2023-03-15T09:45:41;13.40;1.00
1592;DHT22;789;51.612;7.510;2023-03-15T09:48:15;13.10;1.00
1592;DHT22;789;51.612;7.510;2023-03-15T09:50:46;14.10;1.00
1592;DHT22;789;51.612;7.510;2023-03-15T09:53:19;15.90;1.00
1592;DHT22;789;51.612;7.510;2023-03-15T09:55:50;18.30;1.00
1592;DHT22;789;51.612;7.510;2023-03-15T09:58:21;20.40;1.00
1592;DHT22;789;51.612;7.510;2023-03-15T10:00:52;22.50;1.00
1592;DHT22;789;51.612;7.510;2023-03-15T10:03:22;24.00;1.00
1592;DHT22;789;51.612;7.510;2023-03-15T10:05:53;25.20;1.00
1592;DHT22;789;51.612;7.510;2023-03-15T10:08:23;26.90;1.00
1592;DHT22;789;51.612;7.510;2023-03-15T10:10:52;28.30;1.00
1592;DHT22;789;51.612;7.510;2023-03-15T10:13:34;28.60;1.00
1592;DHT22;789;51.612;7.510;2023-03-15T10:16:18;29.00;1.00
1592;DHT22;789;51.612;7.510;2023-03-15T10:18:59;28.60;1.00
1592;DHT22;789;51.612;7.510;2023-03-15T10:21:35;27.60;1.00
1592;DHT22;789;51.612;7.510;2023-03-15T10:24:13;26.20;1.00
1592;DHT22;789;51.612;7.510;2023-03-15T10:26:41;26.20;1.00
1592;DHT22;789;51.612;7.510;2023-03-15T10:29:13;26.10;1.00
1592;DHT22;789;51.612;7.510;2023-03-15T10:31:43;25.80;1.00
1592;DHT22;789;51.612;7.510;2023-03-15T10:34:12;24.80;1.00
1592;DHT22;789;51.612;7.510;2023-03-15T10:36:44;23.90;1.00
1592;DHT22;789;51.612;7.510;2023-03-15T10:39:15;22.60;1.00
1592;DHT22;789;51.612;7.510;2023-03-15T10:41:45;21.50;1.00
1592;DHT22;789;51.612;7.510;2023-03-15T10:44:15;21.30;1.00
1592;DHT22;789;51.612;7.510;2023-03-15T10:46:58;21.50;1.00
1592;DHT22;789;51.612;7.510;2023-03-15T10:49:33;21.50;1.00
1592;DHT22;789;51.612;7.510;2023-03-15T10:52:02;21.70;1.00
1592;DHT22;789;51.612;7.510;2023-03-15T10:54:32;21.80;1.00
1592;DHT22;789;51.612;7.510;2023-03-15T10:57:02;22.20;1.00
1592;DHT22;789;51.612;7.510;2023-03-15T10:59:31;23.10;1.00
1592;DHT22;789;51.612;7.510;2023-03-15T11:02:18;24.10;1.00
1592;DHT22;789;51.612;7.510;2023-03-15T11:04:49;25.70;1.00
1592;DHT22;789;51.612;7.510;2023-03-15T11:07:16;26.90;1.00
1592;DHT22;789;51.612;7.510;2023-03-15T11:09:50;28.40;1.00
1592;DHT22;789;51.612;7.510;2023-03-15T11:12:21;29.10;1.00
1592;DHT22;789;51.612;7.510;2023-03-15T11:14:51;28.50;1.00
1592;DHT22;789;51.612;7.510;2023-03-15T11:17:21;26.80;1.00
1592;DHT22;789;51.612;7.510;2023-03-15T11:19:53;24.70;1.00
1592;DHT22;789;51.612;7.510;2023-03-15T11:22:22;23.30;1.00
1592;DHT22;789;51.612;7.510;2023-03-15T11:24:51;22.60;1.00
1592;DHT22;789;51.612;7.510;2023-03-15T11:27:21;22.10;1.00
1592;DHT22;789;51.612;7.510;2023-03-15T11:29:51;21.10;1.00
1592;DHT22;789;51.612;7.510;2023-03-15T11:32:22;20.10;1.00
1592;DHT22;789;51.612;7.510;2023-03-15T11:34:55;19.50;1.00
1592;DHT22;789;51.612;7.510;2023-03-15T11:37:27;18.80;1.00
1592;DHT22;789;51.612;7.510;2023-03-15T11:40:01;18.60;1.00
1592;DHT22;789;51.612;7.510;2023-03-15T11:42:32;19.40;1.00
1592;DHT22;789;51.612;7.510;2023-03-15T11:45:04;20.80;1.00
1592;DHT22;789;51.612;7.510;2023-03-15T11:47:38;22.20;1.00
1592;DHT22;789;51.612;7.510;2023-03-15T11:50:08;24.00;1.00
1592;DHT22;789;51.612;7.510;2023-03-15T11:52:37;25.70;1.00
1592;DHT22;789;51.612;7.510;2023-03-15T11:55:14;26.60;1.00
1592;DHT22;789;51.612;7.510;2023-03-15T11:57:43;27.40;1.00
1592;DHT22;789;51.612;7.510;2023-03-15T12:06:11;29.10;1.00
1592;DHT22;789;51.612;7.510;2023-03-15T12:08:46;27.80;1.00
1592;DHT22;789;51.612;7.510;2023-03-15T12:11:39;25.90;1.00
1592;DHT22;789;51.612;7.510;2023-03-15T12:14:24;23.90;1.00
1592;DHT22;789;51.612;7.510;2023-03-15T12:16:51;22.00;1.00
1592;DHT22;789;51.612;7.510;2023-03-15T12:19:24;21.00;1.00
1592;DHT22;789;51.612;7.510;2023-03-15T12:21:52;21.30;1.00
1592;DHT22;789;51.612;7.510;2023-03-15T12:24:22;22.00;1.00
1592;DHT22;789;51.612;7.510;2023-03-15T12:27:00;22.50;1.00
1592;DHT22;789;51.612;7.510;2023-03-15T12:29:29;23.50;1.00
1592;DHT22;789;51.612;7.510;2023-03-15T12:32:05;23.90;1.00
1592;DHT22;789;51.612;7.510;2023-03-15T12:34:43;23.40;1.00
1592;DHT22;789;51.612;7.510;2023-03-15T12:37:16;22.40;1.00
1592;DHT22;789;51.612;7.510;2023-03-15T12:39:46;21.50;1.00
1592;DHT22;789;51.612;7.510;2023-03-15T12:45:34;18.50;1.00
1592;DHT22;789;51.612;7.510;2023-03-15T12:48:27;17.10;1.00
1592;DHT22;789;51.612;7.510;2023-03-15T12:51:03;16.20;1.00
1592;DHT22;789;51.612;7.510;2023-03-15T12:53:39;15.50;1.00
1592;DHT22;789;51.612;7.510;2023-03-15T12:56:39;14.70;1.00
1592;DHT22;789;51.612;7.510;2023-03-15T12:59:15;14.30;1.00
1592;DHT22;789;51.612;7.510;2023-03-15T13:01:45;14.10;1.00
1592;DHT22;789;51.612;7.510;2023-03-15T13:04:13;14.00;1.00
1592;DHT22;789;51.612;7.510;2023-03-15T13:06:54;13.80;1.00
1592;DHT22;789;51.612;7.510;2023-03-15T13:09:46;13.40;1.00
1592;DHT22;789;51.612;7.510;2023-03-15T13:12:19;13.20;1.00
1592;DHT22;789;51.612;7.510;2023-03-15T13:14:53;13.10;1.00
1592;DHT22;789;51.612;7.510;2023-03-15T13:17:32;12.90;1.00
1592;DHT22;789;51.612;7.510;2023-03-15T13:20:15;12.60;1.00
1592;DHT22;789;51.612;7.510;2023-03-15T13:22:49;12.40;1.00
1592;DHT22;789;51.612;7.510;2023-03-15T13:25:22;12.20;1.00
1592;DHT22;789;51.612;7.510;2023-03-15T13:27:53;12.20;1.00
1592;DHT22;789;51.612;7.510;2023-03-15T13:30:32;12.20;1.00
1592;DHT22;789;51.612;7.510;2023-03-15T13:33:17;12.20;1.00
1592;DHT22;789;51.612;7.510;2023-03-15T13:35:46;12.20;1.00
1592;DHT22;789;51.612;7.510;2023-03-15T13:38:23;12.30;1.00
1592;DHT22;789;51.612;7.510;2023-03-15T13:40:50;12.10;1.00
1592;DHT22;789;51.612;7.510;2023-03-15T13:43:17;12.10;1.00
1592;DHT22;789;51.612;7.510;2023-03-15T13:45:44;12.20;1.00
1592;DHT22;789;51.612;7.510;2023-03-15T13:48:12;12.20;1.00
1592;DHT22;789;51.612;7.510;2023-03-15T13:50:39;12.30;1.00
1592;DHT22;789;51.612;7.510;2023-03-15T13:53:06;12.30;1.00
1592;DHT22;789;51.612;7.510;2023-03-15T13:55:34;12.40;1.00
1592;DHT22;789;51.612;7.510;2023-03-15T13:58:05;12.50;1.00
1592;DHT22;789;51.612;7.510;2023-03-15T14:00:34;12.40;1.00
1592;DHT22;789;51.612;7.510;2023-03-15T14:03:04;12.40;1.00
1592;DHT22;789;51.612;7.510;2023-03-15T14:05:42;12.40;1.00
1592;DHT22;789;51.612;7.510;2023-03-15T14:08:18;12.20;1.00
1592;DHT22;789;51.612;7.510;2023-03-15T14:10:58;12.20;1.00
1592;DHT22;789;51.612;7.510;2023-03-15T14:13:27;12.10;1.00
1592;DHT22;789;51.612;7.510;2023-03-15T14:15:59;12.10;1.00
1592;DHT22;789;51.612;7.510;2023-03-15T14:18:30;12.00;1.00
1592;DHT22;789;51.612;7.510;2023-03-15T14:21:01;12.00;1.00
1592;DHT22;789;51.612;7.510;2023-03-15T14:23:29;11.90;1.00
1592;DHT22;789;51.612;7.510;2023-03-15T14:26:04;11.80;1.00
1592;DHT22;789;51.612;7.510;2023-03-15T14:28:32;11.70;1.00
1592;DHT22;789;51.612;7.510;2023-03-15T14:31:00;11.70;1.00
1592;DHT22;789;51.612;7.510;2023-03-15T14:33:32;11.60;1.00
1592;DHT22;789;51.612;7.510;2023-03-15T14:36:03;11.50;1.00
1592;DHT22;789;51.612;7.510;2023-03-15T14:38:33;11.50;1.00
1592;DHT22;789;51.612;7.510;2023-03-15T14:41:18;11.40;1.00
1592;DHT22;789;51.612;7.510;2023-03-15T14:43:45;11.40;1.00
1592;DHT22;789;51.612;7.510;2023-03-15T14:46:13;11.40;1.00
1592;DHT22;789;51.612;7.510;2023-03-15T14:48:40;11.40;1.00
1592;DHT22;789;51.612;7.510;2023-03-15T14:51:13;11.40;1.00
1592;DHT22;789;51.612;7.510;2023-03-15T14:53:40;11.30;1.00
1592;DHT22;789;51.612;7.510;2023-03-15T14:56:10;11.30;1.00
1592;DHT22;789;51.612;7.510;2023-03-15T14:58:37;11.30;1.00
1592;DHT22;789;51.612;7.510;2023-03-15T15:01:04;11.30;1.00
1592;DHT22;789;51.612;7.510;2023-03-15T15:03:32;11.20;1.00
1592;DHT22;789;51.612;7.510;2023-03-15T15:06:00;11.30;1.00
1592;DHT22;789;51.612;7.510;2023-03-15T15:08:30;11.20;1.00
1592;DHT22;789;51.612;7.510;2023-03-15T15:10:58;11.20;1.00
1592;DHT22;789;51.612;7.510;2023-03-15T15:13:27;11.20;1.00
1592;DHT22;789;51.612;7.510;2023-03-15T15:15:54;11.30;1.00
1592;DHT22;789;51.612;7.510;2023-03-15T15:18:23;11.30;1.00
1592;DHT22;789;51.612;7.510;2023-03-15T15:20:50;11.30;1.00
1592;DHT22;789;51.612;7.510;2023-03-15T15:23:22;11.30;1.00
1592;DHT22;789;51.612;7.510;2023-03-15T15:25:53;11.30;1.00
1592;DHT22;789;51.612;7.510;2023-03-15T15:28:21;11.30;1.00
1592;DHT22;789;51.612;7.510;2023-03-15T15:30:47;11.20;1.00
1592;DHT22;789;51.612;7.510;2023-03-15T15:33:14;11.20;1.00
1592;DHT22;789;51.612;7.510;2023-03-15T15:35:41;11.20;1.00
1592;DHT22;789;51.612;7.510;2023-03-15T15:38:10;11.20;1.00
1592;DHT22;789;51.612;7.510;2023-03-15T15:40:38;11.20;1.00
1592;DHT22;789;51.612;7.510;2023-03-15T15:43:09;11.30;1.00
1592;DHT22;789;51.612;7.510;2023-03-15T15:45:36;11.30;1.00
1592;DHT22;789;51.612;7.510;2023-03-15T15:48:04;11.20;1.00
1592;DHT22;789;51.612;7.510;2023-03-15T15:50:31;11.20;1.00
1592;DHT22;789;51.612;7.510;2023-03-15T15:53:00;11.10;1.00
1592;DHT22;789;51.612;7.510;2023-03-15T15:55:30;10.90;1.00
1592;DHT22;789;51.612;7.510;2023-03-15T15:57:58;10.80;1.00
1592;DHT22;789;51.612;7.510;2023-03-15T16:00:28;10.80;1.00
1592;DHT22;789;51.612;7.510;2023-03-15T16:02:56;10.60;1.00
1592;DHT22;789;51.612;7.510;2023-03-15T16:05:25;10.50;1.00
1592;DHT22;789;51.612;7.510;2023-03-15T16:07:53;10.40;1.00
1592;DHT22;789;51.612;7.510;2023-03-15T16:10:22;10.40;1.00
1592;DHT22;789;51.612;7.510;2023-03-15T16:12:50;10.40;1.00
1592;DHT22;789;51.612;7.510;2023-03-15T16:15:17;10.40;1.00
1592;DHT22;789;51.612;7.510;2023-03-15T16:17:46;10.50;1.00
1592;DHT22;789;51.612;7.510;2023-03-15T16:20:14;10.40;1.00
1592;DHT22;789;51.612;7.510;2023-03-15T16:22:45;10.30;1.00
1592;DHT22;789;51.612;7.510;2023-03-15T16:25:16;10.30;1.00
1592;DHT22;789;51.612;7.510;2023-03-15T16:27:44;10.40;1.00
1592;DHT22;789;51.612;7.510;2023-03-15T16:30:18;10.40;1.00
1592;DHT22;789;51.612;7.510;2023-03-15T16:32:48;10.30;1.00
1592;DHT22;789;51.612;7.510;2023-03-15T16:35:20;10.30;1.00
1592;DHT22;789;51.612;7.510;2023-03-15T16:37:50;10.30;1.00
1592;DHT22;789;51.612;7.510;2023-03-15T16:40:22;10.20;1.00
1592;DHT22;789;51.612;7.510;2023-03-15T16:42:50;10.10;1.00
1592;DHT22;789;51.612;7.510;2023-03-15T16:45:18;10.00;1.00
1592;DHT22;789;51.612;7.510;2023-03-15T16:47:44;10.00;1.00
1592;DHT22;789;51.612;7.510;2023-03-15T16:50:14;10.00;1.00
1592;DHT22;789;51.612;7.510;2023-03-15T16:52:41;10.00;1.00
1592;DHT22;789;51.612;7.510;2023-03-15T16:55:09;9.90;1.00
1592;DHT22;789;51.612;7.510;2023-03-15T16:57:38;9.90;1.00
1592;DHT22;789;51.612;7.510;2023-03-15T17:00:08;9.90;1.00
1592;DHT22;789;51.612;7.510;2023-03-15T17:02:39;9.90;1.00
1592;DHT22;789;51.612;7.510;2023-03-15T17:05:07;9.90;1.00